Time;durP1;ratioP1;P1;durP2;ratioP2;P2;SDS_P1;SDS_P2;PMS_P1;PMS_P2;Temp;Humidity;BMP_temperature;BMP_pressure;BME280_temperature;BME280_humidity;BME280_pressure;Samples;Min_cycle;Max_cycle;Signal;HPM_P1;HPM_P2
2022/06/06 00:01:44;;;;;;;47.88;10.82;;;18.50;99.90;;;;;;5020002;28;20068;-88
2022/06/06 00:04:13;;;;;;;43.22;10.38;;;18.40;99.90;;;;;;5041516;28;20032;-89
2022/06/06 00:06:39;;;;;;;33.13;8.65;;;18.30;99.90;;;;;;5043972;28;20091;-88
2022/06/06 00:09:06;;;;;;;38.22;9.40;;;18.30;99.90;;;;;;5042004;28;20550;-89
2022/06/06 00:11:35;;;;;;;34.35;11.30;;;18.30;99.90;;;;;;5020369;28;20098;-90
2022/06/06 00:14:01;;;;;;;41.17;11.30;;;18.20;99.90;;;;;;5040616;28;20370;-89
2022/06/06 00:16:27;;;;;;;40.47;12.32;;;18.20;99.90;;;;;;5040099;28;20427;-89
2022/06/06 00:18:53;;;;;;;31.60;13.95;;;18.30;99.90;;;;;;5043591;28;20029;-88
2022/06/06 00:21:18;;;;;;;40.33;16.98;;;18.50;99.90;;;;;;5045406;28;20021;-89
2022/06/06 00:23:44;;;;;;;49.08;21.55;;;18.50;99.90;;;;;;5018927;28;20388;-89
2022/06/06 00:26:13;;;;;;;59.40;27.67;;;18.60;99.90;;;;;;5045129;28;20029;-91
2022/06/06 00:28:43;;;;;;;46.55;21.90;;;18.60;99.90;;;;;;5029112;28;20033;-89
2022/06/06 00:36:39;;;;;;;34.25;11.30;;;18.80;99.90;;;;;;5041543;28;20051;-89
2022/06/06 00:39:08;;;;;;;24.73;11.98;;;18.60;99.90;;;;;;5023532;28;20029;-88
2022/06/06 00:41:38;;;;;;;29.73;12.35;;;18.70;99.90;;;;;;5042454;28;20112;-88
2022/06/06 00:44:09;;;;;;;22.35;9.82;;;18.70;99.90;;;;;;5025850;28;20033;-89
2022/06/06 00:46:39;;;;;;;15.35;8.88;;;18.70;99.90;;;;;;5022185;28;20032;-88
2022/06/06 00:49:08;;;;;;;15.93;9.02;;;18.60;99.90;;;;;;5023984;28;20064;-87
2022/06/06 00:51:35;;;;;;;14.38;9.32;;;18.60;99.90;;;;;;5041283;28;20018;-93
2022/06/06 00:54:02;;;;;;;27.80;12.95;;;18.60;99.90;;;;;;5038228;28;20115;-95
2022/06/06 00:56:38;;;;;;;43.42;15.82;;;18.60;99.90;;;;;;5044814;28;20037;-94
2022/06/06 00:59:14;;;;;;;37.60;18.48;;;18.50;99.90;;;;;;5029928;28;20482;-95
2022/06/06 01:01:41;;;;;;;45.63;18.35;;;18.70;99.90;;;;;;5050192;28;20029;-96
2022/06/06 01:04:10;;;;;;;45.88;22.25;;;18.80;99.90;;;;;;5028467;28;20095;-93
2022/06/06 01:06:42;;;;;;;49.60;24.08;;;18.80;99.90;;;;;;5043639;28;20044;-95
2022/06/06 01:09:09;;;;;;;43.67;18.02;;;18.90;99.90;;;;;;5026298;28;20071;-93
2022/06/06 01:11:48;;;;;;;34.13;17.58;;;18.80;99.90;;;;;;5024691;28;20021;-94
2022/06/06 01:14:20;;;;;;;27.23;16.50;;;18.80;99.90;;;;;;5022084;28;20472;-94
2022/06/06 01:17:00;;;;;;;34.00;14.00;;;18.80;99.90;;;;;;5042300;28;20037;-94
2022/06/06 01:19:50;;;;;;;31.08;14.50;;;18.70;99.90;;;;;;5042790;28;20030;-94
2022/06/06 01:22:42;;;;;;;39.05;15.65;;;18.60;99.90;;;;;;5040555;28;20064;-94
2022/06/06 01:25:38;;;;;;;26.67;15.20;;;18.60;99.90;;;;;;5025536;28;20037;-96
2022/06/06 01:28:25;;;;;;;25.02;13.95;;;18.60;99.90;;;;;;5027607;28;20026;-96
2022/06/06 01:30:54;;;;;;;28.27;14.18;;;18.50;99.90;;;;;;5031002;28;20025;-96
2022/06/06 01:33:20;;;;;;;27.85;14.27;;;18.50;99.90;;;;;;5024032;28;20112;-96
2022/06/06 01:35:48;;;;;;;22.02;12.07;;;18.40;99.90;;;;;;5047607;28;20061;-95
2022/06/06 01:38:17;;;;;;;24.15;10.32;;;18.40;99.90;;;;;;5020132;28;20041;-95
2022/06/06 01:40:55;;;;;;;20.05;11.35;;;18.40;99.90;;;;;;5036285;28;20025;-93
2022/06/06 01:43:34;;;;;;;22.60;11.82;;;18.40;99.90;;;;;;5037822;28;20484;-95
2022/06/06 01:46:17;;;;;;;16.60;11.10;;;18.30;99.90;;;;;;5031528;28;20116;-95
2022/06/06 01:48:44;;;;;;;22.95;10.90;;;18.20;99.90;;;;;;5024934;28;20033;-96
2022/06/06 01:51:13;;;;;;;16.38;10.98;;;18.10;99.90;;;;;;5046365;28;20051;-95
2022/06/06 01:53:40;;;;;;;15.40;11.73;;;18.20;99.90;;;;;;5050078;28;20053;-96
2022/06/06 01:56:14;;;;;;;22.60;12.90;;;18.20;99.90;;;;;;5039377;28;20059;-94
2022/06/06 01:58:39;;;;;;;22.45;11.93;;;18.20;99.90;;;;;;5046561;28;20029;-95
2022/06/06 02:01:05;;;;;;;22.50;12.60;;;18.30;99.90;;;;;;5049463;28;20521;-94
2022/06/06 02:03:32;;;;;;;22.10;12.13;;;18.20;99.90;;;;;;5053198;28;20037;-93
2022/06/06 02:05:58;;;;;;;18.38;14.15;;;18.30;99.90;;;;;;5050675;28;20028;-95
2022/06/06 02:08:24;;;;;;;22.90;12.70;;;18.30;99.90;;;;;;5044237;28;20555;-93
2022/06/06 02:10:49;;;;;;;16.95;12.07;;;18.30;99.90;;;;;;5047931;28;20021;-96
2022/06/06 02:13:16;;;;;;;20.65;13.35;;;18.20;99.90;;;;;;5044561;28;20045;-96
2022/06/06 02:15:43;;;;;;;23.58;12.93;;;18.20;99.90;;;;;;5056797;28;20060;-96
2022/06/06 02:18:09;;;;;;;21.45;13.15;;;18.20;99.90;;;;;;5060913;28;20016;-94
2022/06/06 02:20:36;;;;;;;22.02;13.50;;;18.20;99.90;;;;;;5025579;28;20449;-95
2022/06/06 02:23:02;;;;;;;16.88;12.75;;;18.20;99.90;;;;;;5040895;28;20079;-94
2022/06/06 02:25:29;;;;;;;16.70;13.48;;;18.20;99.90;;;;;;5045646;28;20021;-93
2022/06/06 02:27:55;;;;;;;24.90;12.45;;;18.10;99.90;;;;;;5039855;28;20052;-93
2022/06/06 02:30:24;;;;;;;24.33;14.15;;;18.20;99.90;;;;;;5043362;28;20021;-92
2022/06/06 02:32:50;;;;;;;20.65;13.88;;;18.10;99.90;;;;;;5027021;28;20662;-95
2022/06/06 02:35:19;;;;;;;23.85;13.65;;;18.10;99.90;;;;;;5048952;28;20017;-95
2022/06/06 02:37:46;;;;;;;17.23;11.88;;;18.10;99.90;;;;;;5039870;28;20029;-94
2022/06/06 02:40:15;;;;;;;16.08;12.65;;;18.10;99.90;;;;;;5026078;28;20111;-94
2022/06/06 02:42:41;;;;;;;24.77;12.77;;;18.10;99.90;;;;;;5040030;28;20026;-94
2022/06/06 02:45:09;;;;;;;13.70;11.23;;;18.00;99.90;;;;;;5043539;28;20025;-94
2022/06/06 02:47:36;;;;;;;15.55;10.55;;;18.00;99.90;;;;;;5020996;28;20051;-94
2022/06/06 02:50:03;;;;;;;15.13;9.85;;;18.00;99.90;;;;;;5025320;28;20016;-94
2022/06/06 02:52:29;;;;;;;12.52;9.43;;;17.90;99.90;;;;;;5032054;28;20060;-94
2022/06/06 02:54:55;;;;;;;13.32;10.10;;;17.80;99.90;;;;;;5025279;28;20533;-93
2022/06/06 02:57:21;;;;;;;15.32;7.93;;;17.70;99.90;;;;;;5048861;28;20120;-93
2022/06/06 02:59:50;;;;;;;11.68;8.40;;;17.70;99.90;;;;;;5046939;28;20529;-93
2022/06/06 03:02:16;;;;;;;12.82;8.48;;;17.70;99.90;;;;;;5043857;28;20036;-95
2022/06/06 03:04:42;;;;;;;16.05;9.38;;;17.70;99.90;;;;;;5024920;28;20021;-96
2022/06/06 03:07:21;;;;;;;16.83;10.57;;;17.70;99.90;;;;;;5029187;28;20029;-95
2022/06/06 03:10:05;;;;;;;10.15;8.85;;;17.70;99.90;;;;;;5032909;28;20530;-95
2022/06/06 03:12:53;;;;;;;14.68;7.90;;;17.80;99.90;;;;;;5019655;28;20022;-95
2022/06/06 03:22:14;;;;;;;11.60;7.55;;;17.80;99.90;;;;;;5042790;28;20040;-94
2022/06/06 03:25:01;;;;;;;13.70;7.10;;;17.70;99.90;;;;;;5039751;28;20028;-93
2022/06/06 03:27:37;;;;;;;12.35;7.10;;;17.70;99.90;;;;;;5046607;28;20070;-92
2022/06/06 03:30:11;;;;;;;12.80;8.15;;;17.60;99.90;;;;;;5027420;28;20017;-94
2022/06/06 03:33:00;;;;;;;14.27;9.25;;;17.60;99.90;;;;;;5047695;28;20044;-92
2022/06/06 03:35:38;;;;;;;14.75;8.88;;;17.70;99.90;;;;;;5041146;28;20029;-94
2022/06/06 03:38:28;;;;;;;11.35;8.82;;;17.70;99.90;;;;;;5042767;28;20029;-93
2022/06/06 03:41:14;;;;;;;10.90;8.68;;;17.70;99.90;;;;;;5046462;28;20028;-93
2022/06/06 03:44:14;;;;;;;6.80;5.57;;;17.60;99.90;;;;;;5030539;28;20510;-93
2022/06/06 03:46:54;;;;;;;9.07;4.80;;;17.50;99.90;;;;;;5038195;28;20026;-95
2022/06/06 03:49:52;;;;;;;5.28;3.95;;;17.40;99.90;;;;;;5046079;28;20056;-95
2022/06/06 03:52:49;;;;;;;7.00;4.03;;;17.40;99.90;;;;;;4995238;28;20136;-93
2022/06/06 03:55:23;;;;;;;4.45;3.20;;;17.40;99.90;;;;;;5031691;28;20116;-95
2022/06/06 03:58:14;;;;;;;8.80;3.17;;;17.50;99.90;;;;;;5025360;28;20028;-89
2022/06/06 04:00:41;;;;;;;10.60;2.90;;;17.60;99.90;;;;;;5009263;28;20444;-93
2022/06/06 04:03:10;;;;;;;6.00;2.50;;;17.70;99.90;;;;;;5023258;28;20029;-91
2022/06/06 04:05:39;;;;;;;4.13;2.63;;;17.80;99.90;;;;;;5042306;28;20515;-91
2022/06/06 04:08:06;;;;;;;6.53;3.05;;;18.00;99.90;;;;;;5037252;28;20745;-90
2022/06/06 04:10:55;;;;;;;3.92;2.15;;;18.20;99.90;;;;;;5044292;28;20021;-92
2022/06/06 04:13:47;;;;;;;3.13;2.33;;;18.20;99.90;;;;;;5012323;28;20049;-93
2022/06/06 04:16:22;;;;;;;3.80;1.55;;;18.40;99.90;;;;;;5036958;28;20052;-93
2022/06/06 04:19:09;;;;;;;3.17;1.77;;;18.40;99.90;;;;;;5028342;28;20025;-93
2022/06/06 04:22:12;;;;;;;3.65;1.73;;;18.60;99.90;;;;;;5038210;28;20538;-92
2022/06/06 04:25:04;;;;;;;3.85;1.95;;;18.90;99.90;;;;;;5045655;28;20472;-89
2022/06/06 04:27:55;;;;;;;7.15;1.80;;;19.00;99.90;;;;;;5029425;28;20044;-93
2022/06/06 04:30:30;;;;;;;4.00;2.10;;;19.10;99.90;;;;;;5032195;28;20032;-93
2022/06/06 04:33:15;;;;;;;5.43;1.55;;;19.30;99.90;;;;;;5028891;28;20025;-92
2022/06/06 04:35:59;;;;;;;5.57;1.90;;;19.50;99.90;;;;;;5014074;28;20031;-92
2022/06/06 04:38:43;;;;;;;3.67;1.65;;;19.70;99.90;;;;;;5041414;28;20012;-91
2022/06/06 04:41:22;;;;;;;2.28;1.30;;;20.00;99.90;;;;;;5039150;28;20404;-91
2022/06/06 04:44:26;;;;;;;2.65;1.65;;;20.30;99.90;;;;;;5029567;28;20018;-92
2022/06/06 04:47:00;;;;;;;3.58;1.67;;;20.40;99.90;;;;;;4946541;29;20304;-92
2022/06/06 04:49:28;;;;;;;5.22;1.45;;;20.60;99.90;;;;;;5027367;28;20036;-88
2022/06/06 04:51:57;;;;;;;11.57;1.58;;;20.70;99.90;;;;;;5026506;28;20038;-90
2022/06/06 04:54:29;;;;;;;4.55;1.38;;;20.90;99.90;;;;;;5042670;28;20032;-88
2022/06/06 04:56:55;;;;;;;4.90;1.40;;;21.20;99.90;;;;;;5044839;28;20037;-91
2022/06/06 04:59:25;;;;;;;3.63;1.50;;;21.50;99.90;;;;;;5041445;28;20087;-92
2022/06/06 05:01:52;;;;;;;7.50;1.77;;;21.70;99.90;;;;;;5022289;28;20033;-91
2022/06/06 05:04:19;;;;;;;2.47;1.35;;;21.80;99.90;;;;;;5042119;28;20067;-92
2022/06/06 05:07:10;;;;;;;7.75;1.70;;;21.90;99.90;;;;;;5019102;28;20021;-89
2022/06/06 05:09:59;;;;;;;1.83;1.30;;;21.90;99.90;;;;;;5024449;28;20033;-95
2022/06/06 05:12:53;;;;;;;2.88;1.48;;;22.00;99.90;;;;;;5036720;28;20056;-91
2022/06/06 05:15:44;;;;;;;4.32;1.70;;;22.10;99.90;;;;;;5007600;28;20385;-89
2022/06/06 05:18:28;;;;;;;6.00;1.70;;;22.30;99.90;;;;;;5038628;28;20018;-91
2022/06/06 05:21:31;;;;;;;5.18;1.45;;;22.30;99.90;;;;;;5038830;28;20069;-89
2022/06/06 05:24:06;;;;;;;3.85;1.60;;;22.40;99.90;;;;;;5030026;28;20488;-90
2022/06/06 05:26:35;;;;;;;4.07;1.40;;;22.50;99.90;;;;;;5043867;28;20119;-89
2022/06/06 05:29:06;;;;;;;3.15;1.50;;;22.50;99.90;;;;;;5047434;28;20017;-90
2022/06/06 05:31:57;;;;;;;3.10;1.60;;;22.60;99.90;;;;;;5037676;28;20542;-88
2022/06/06 05:34:50;;;;;;;2.17;1.45;;;22.80;99.90;;;;;;5042131;28;20021;-89
2022/06/06 05:37:25;;;;;;;3.63;1.80;;;22.80;99.90;;;;;;5040306;28;20052;-88
2022/06/06 05:39:59;;;;;;;4.28;1.50;;;23.00;99.90;;;;;;5040363;28;20021;-88
2022/06/06 05:42:53;;;;;;;4.35;1.67;;;23.00;99.90;;;;;;5037753;28;20468;-90
2022/06/06 05:45:37;;;;;;;2.22;1.33;;;23.00;99.90;;;;;;5020316;28;20029;-90
2022/06/06 05:48:21;;;;;;;2.03;1.38;;;23.10;99.90;;;;;;5016487;28;20017;-90
2022/06/06 05:51:02;;;;;;;3.25;1.30;;;23.10;99.90;;;;;;5005875;28;20477;-91
2022/06/06 05:54:03;;;;;;;4.07;1.70;;;23.10;99.90;;;;;;5035710;28;20060;-89
2022/06/06 05:56:56;;;;;;;2.40;1.20;;;23.10;99.90;;;;;;5037282;28;20115;-92
2022/06/06 05:59:53;;;;;;;3.53;1.40;;;23.30;99.90;;;;;;5042540;28;20134;-89
2022/06/06 06:02:50;;;;;;;2.88;1.52;;;23.40;99.90;;;;;;4991851;28;20522;-93
2022/06/06 06:05:34;;;;;;;4.13;1.45;;;23.60;99.90;;;;;;5037728;28;20484;-91
2022/06/06 06:08:18;;;;;;;5.43;1.40;;;23.60;99.90;;;;;;5040662;28;20048;-92
2022/06/06 06:11:18;;;;;;;4.70;1.70;;;23.60;99.90;;;;;;5026996;28;20440;-93
2022/06/06 06:14:03;;;;;;;2.22;1.30;;;23.70;99.90;;;;;;5028748;28;20025;-93
2022/06/06 06:16:37;;;;;;;2.28;1.35;;;23.80;99.90;;;;;;5025591;28;20034;-90
2022/06/06 06:19:17;;;;;;;3.88;1.45;;;23.80;99.90;;;;;;5042400;28;20048;-94
2022/06/06 06:21:53;;;;;;;1.92;1.52;;;23.80;99.90;;;;;;5038379;28;20033;-90
2022/06/06 06:24:26;;;;;;;2.83;1.20;;;23.90;99.90;;;;;;5043205;28;20647;-91
2022/06/06 06:26:54;;;;;;;2.75;1.40;;;24.00;99.90;;;;;;5022506;28;20022;-93
2022/06/06 06:29:20;;;;;;;6.07;1.77;;;24.00;99.90;;;;;;5045817;28;20032;-88
2022/06/06 06:32:24;;;;;;;4.43;1.60;;;24.10;99.90;;;;;;5039887;28;20389;-91
2022/06/06 06:34:55;;;;;;;2.90;1.75;;;24.10;99.90;;;;;;5039468;28;20026;-90
2022/06/06 06:37:24;;;;;;;4.00;1.20;;;24.10;99.90;;;;;;5048510;28;20059;-92
2022/06/06 06:40:15;;;;;;;11.23;1.67;;;24.20;99.90;;;;;;5044627;28;20121;-91
2022/06/06 06:43:02;;;;;;;2.73;1.10;;;24.30;99.90;;;;;;5036780;28;20026;-92
2022/06/06 06:45:44;;;;;;;1.23;0.93;;;24.50;99.90;;;;;;5045609;28;20102;-91
2022/06/06 06:48:16;;;;;;;;;;;24.50;99.90;;;;;;5036633;28;20026;-90
2022/06/06 06:51:07;;;;;;;3.25;1.00;;;24.60;99.90;;;;;;5046091;28;19999;-90
2022/06/06 06:53:39;;;;;;;3.42;1.00;;;24.70;99.90;;;;;;5040832;28;20065;-89
2022/06/06 06:56:37;;;;;;;1.80;1.05;;;24.80;99.90;;;;;;5021192;28;20171;-92
2022/06/06 06:59:17;;;;;;;2.55;1.08;;;24.80;99.90;;;;;;5036532;28;20025;-89
2022/06/06 07:08:34;;;;;;;3.92;1.00;;;25.10;99.90;;;;;;5047033;28;20115;-87
2022/06/06 07:11:16;;;;;;;0.90;0.77;;;25.10;99.90;;;;;;5040698;28;20056;-88
2022/06/06 07:14:00;;;;;;;1.63;0.93;;;25.20;99.90;;;;;;5037938;28;20025;-89
2022/06/06 07:16:35;;;;;;;1.67;0.85;;;25.20;99.90;;;;;;5019090;28;20040;-89
2022/06/06 07:19:17;;;;;;;2.03;1.13;;;25.20;99.90;;;;;;5021651;28;20026;-89
2022/06/06 07:21:49;;;;;;;2.30;1.02;;;25.30;99.90;;;;;;5042895;28;20029;-88
2022/06/06 07:24:20;;;;;;;2.13;1.20;;;25.40;99.90;;;;;;5017924;28;20021;-91
2022/06/06 07:26:47;;;;;;;5.93;1.10;;;25.40;99.90;;;;;;5027867;28;20021;-89
2022/06/06 07:29:21;;;;;;;1.63;0.80;;;25.50;99.90;;;;;;5027101;28;20049;-89
2022/06/06 07:32:26;;;;;;;1.65;1.00;;;25.50;99.90;;;;;;5037157;28;20025;-89
2022/06/06 07:35:07;;;;;;;4.18;1.10;;;25.60;99.90;;;;;;5022981;28;20037;-91
2022/06/06 07:37:36;;;;;;;3.33;1.08;;;25.70;99.90;;;;;;5022226;28;20038;-90
2022/06/06 07:40:17;;;;;;;2.38;0.93;;;25.70;99.90;;;;;;5043851;28;20049;-91
2022/06/06 07:43:09;;;;;;;3.95;0.98;;;25.80;99.90;;;;;;5012692;28;20037;-93
2022/06/06 07:45:45;;;;;;;4.00;0.88;;;26.00;99.90;;;;;;5026812;28;20037;-90
2022/06/06 07:48:35;;;;;;;3.05;0.93;;;26.00;99.90;;;;;;5018792;28;20068;-91
2022/06/06 07:51:06;;;;;;;2.35;1.10;;;26.00;99.90;;;;;;5028850;28;20211;-93
2022/06/06 07:54:03;;;;;;;9.20;1.05;;;26.00;99.90;;;;;;5041441;28;20049;-92
2022/06/06 07:56:57;;;;;;;6.30;1.23;;;26.00;99.90;;;;;;5021076;28;20075;-90
2022/06/06 07:59:34;;;;;;;2.25;1.00;;;26.20;99.90;;;;;;4997445;28;20036;-90
2022/06/06 08:02:23;;;;;;;2.38;0.80;;;26.30;99.90;;;;;;5034196;28;20029;-89
2022/06/06 08:05:07;;;;;;;0.80;0.65;;;26.30;99.90;;;;;;5011099;28;20030;-89
2022/06/06 08:07:44;;;;;;;1.95;0.90;;;26.40;99.90;;;;;;5043841;28;20025;-91
2022/06/06 08:10:19;;;;;;;4.38;0.80;;;26.40;99.90;;;;;;5042313;28;20029;-89
2022/06/06 08:12:44;;;;;;;3.88;1.02;;;26.40;99.90;;;;;;5027583;28;20022;-87
2022/06/06 08:15:21;;;;;;;1.20;0.82;;;26.40;99.90;;;;;;5042541;28;20021;-88
2022/06/06 08:18:15;;;;;;;4.03;1.00;;;26.40;99.90;;;;;;5037890;28;20128;-90
2022/06/06 08:21:09;;;;;;;1.38;0.90;;;26.40;99.90;;;;;;5030886;28;20385;-92
2022/06/06 08:23:37;;;;;;;9.07;0.98;;;26.50;99.90;;;;;;5037385;28;20015;-90
2022/06/06 08:26:04;;;;;;;1.88;1.13;;;26.50;99.90;;;;;;5027456;28;20048;-89
2022/06/06 08:28:31;;;;;;;1.65;0.73;;;26.60;99.90;;;;;;5025680;28;20059;-91
2022/06/06 08:30:57;;;;;;;2.28;0.90;;;26.60;99.90;;;;;;5037611;28;20045;-93
2022/06/06 08:33:24;;;;;;;2.38;0.80;;;26.70;99.90;;;;;;5046256;28;20064;-90
2022/06/06 08:36:29;;;;;;;1.40;0.80;;;26.80;99.90;;;;;;5023135;28;20072;-89
2022/06/06 08:39:13;;;;;;;1.17;0.80;;;26.80;99.90;;;;;;5005226;28;20041;-89
2022/06/06 08:42:13;;;;;;;0.85;0.60;;;26.90;99.90;;;;;;5023506;28;20024;-89
2022/06/06 08:45:06;;;;;;;1.52;0.73;;;27.00;99.90;;;;;;5043250;28;20026;-89
2022/06/06 08:47:42;;;;;;;3.20;0.70;;;27.00;99.90;;;;;;5030238;28;20107;-90
2022/06/06 08:53:48;;;;;;;2.58;0.80;;;27.00;99.90;;;;;;5032302;28;20099;-88
2022/06/06 08:56:58;;;;;;;2.47;0.80;;;27.10;99.90;;;;;;4976536;28;20037;-89
2022/06/06 08:59:46;;;;;;;3.42;0.73;;;27.10;99.90;;;;;;4977885;28;20124;-90
2022/06/06 09:02:49;;;;;;;2.45;0.93;;;27.20;99.90;;;;;;5048152;28;20029;-91
2022/06/06 09:05:52;;;;;;;2.70;0.65;;;27.20;99.90;;;;;;5038534;28;20476;-92
2022/06/06 09:08:56;;;;;;;3.60;0.57;;;27.30;99.90;;;;;;5012551;28;20017;-91
2022/06/06 09:11:55;;;;;;;1.75;1.00;;;27.40;99.90;;;;;;5039849;28;20021;-91
2022/06/06 09:14:24;;;;;;;4.65;0.80;;;27.40;99.90;;;;;;5016823;28;20033;-93
2022/06/06 09:17:09;;;;;;;1.88;0.70;;;27.60;99.90;;;;;;5037224;28;20088;-90
2022/06/06 09:19:53;;;;;;;1.00;0.85;;;27.70;99.90;;;;;;5042798;28;20029;-91
2022/06/06 09:22:49;;;;;;;1.25;0.93;;;27.60;99.90;;;;;;5045138;28;20590;-91
2022/06/06 09:25:40;;;;;;;0.98;0.73;;;27.70;99.90;;;;;;5037754;28;20024;-91
2022/06/06 09:28:11;;;;;;;1.67;0.70;;;27.70;99.90;;;;;;5025289;28;20034;-91
2022/06/06 09:30:46;;;;;;;0.70;0.70;;;27.90;99.90;;;;;;5010702;28;20030;-90
2022/06/06 09:33:14;;;;;;;3.13;0.80;;;28.00;99.90;;;;;;5043832;28;20063;-91
2022/06/06 09:35:51;;;;;;;1.58;0.73;;;28.10;99.90;;;;;;5041084;28;20037;-91
2022/06/06 09:38:45;;;;;;;2.85;0.70;;;28.10;99.90;;;;;;5040462;28;20475;-90
2022/06/06 09:41:38;;;;;;;3.03;0.80;;;28.10;99.90;;;;;;5033609;28;20021;-91
2022/06/06 09:44:34;;;;;;;2.50;0.90;;;28.10;99.90;;;;;;5014891;28;20053;-91
2022/06/06 09:47:24;;;;;;;2.28;0.70;;;28.20;99.90;;;;;;5021370;28;20030;-92
2022/06/06 09:49:59;;;;;;;4.43;0.90;;;28.30;99.90;;;;;;5035375;28;20100;-91
2022/06/06 09:52:43;;;;;;;3.50;0.73;;;28.30;99.90;;;;;;5045538;28;20045;-90
2022/06/06 10:01:38;;;;;;;3.13;0.70;;;28.50;99.90;;;;;;5041154;28;20121;-92
2022/06/06 10:04:28;;;;;;;4.25;0.95;;;28.40;99.90;;;;;;5033881;28;20024;-92
2022/06/06 10:07:15;;;;;;;1.17;0.80;;;28.50;99.90;;;;;;5045936;28;20020;-91
2022/06/06 10:09:41;;;;;;;1.73;0.70;;;28.70;99.90;;;;;;5025103;28;20029;-90
2022/06/06 10:12:44;;;;;;;3.13;0.70;;;28.70;99.90;;;;;;5043161;28;20048;-92
2022/06/06 10:15:50;;;;;;;0.90;0.68;;;28.80;99.90;;;;;;5045054;28;20025;-90
2022/06/06 10:18:39;;;;;;;1.75;0.70;;;28.90;99.90;;;;;;5035126;28;20033;-92
2022/06/06 10:21:59;;;;;;;1.83;0.73;;;29.00;99.90;;;;;;5044983;28;20021;-90
2022/06/06 10:24:52;;;;;;;0.90;0.85;;;29.00;99.90;;;;;;4943125;29;20032;-91
2022/06/06 10:27:18;;;;;;;1.00;0.80;;;29.10;99.90;;;;;;5021217;28;20041;-91
2022/06/06 10:30:10;;;;;;;1.60;0.93;;;29.20;99.90;;;;;;5021787;28;20018;-92
2022/06/06 10:32:46;;;;;;;1.67;0.80;;;29.40;99.90;;;;;;5018945;28;20041;-91
2022/06/06 10:35:39;;;;;;;1.98;0.90;;;29.40;99.90;;;;;;5040128;28;20052;-91
2022/06/06 10:38:38;;;;;;;0.80;0.73;;;29.40;99.90;;;;;;5020870;28;20052;-92
2022/06/06 10:41:46;;;;;;;2.15;1.00;;;29.70;99.90;;;;;;5008400;28;20115;-91
2022/06/06 10:44:30;;;;;;;2.67;0.80;;;29.60;99.90;;;;;;5032276;28;20037;-92
2022/06/06 10:47:06;;;;;;;2.40;0.70;;;29.70;99.90;;;;;;5042366;28;20050;-89
2022/06/06 10:49:50;;;;;;;2.30;0.90;;;29.80;99.90;;;;;;5026256;28;20025;-89
2022/06/06 10:52:15;;;;;;;0.95;0.75;;;30.00;99.90;;;;;;5045863;28;20135;-90
2022/06/06 10:55:14;;;;;;;2.63;0.98;;;30.00;99.90;;;;;;5039231;28;20116;-91
2022/06/06 10:58:16;;;;;;;2.70;0.70;;;30.10;99.90;;;;;;5028321;28;20361;-92
2022/06/06 11:01:13;;;;;;;8.68;1.10;;;30.20;99.90;;;;;;5038885;28;20033;-89
2022/06/06 11:04:17;;;;;;;2.25;0.70;;;30.30;99.90;;;;;;5037726;28;20026;-91
2022/06/06 11:07:01;;;;;;;2.15;0.80;;;30.40;99.90;;;;;;5019450;28;20078;-92
2022/06/06 11:10:06;;;;;;;0.70;0.60;;;30.50;99.90;;;;;;5021806;28;20626;-91
2022/06/06 11:13:00;;;;;;;1.23;0.85;;;30.70;99.90;;;;;;5034603;28;20216;-92
2022/06/06 11:16:30;;;;;;;1.77;0.90;;;30.80;99.90;;;;;;5020954;28;20024;-93
2022/06/06 11:19:33;;;;;;;2.55;1.00;;;30.90;99.90;;;;;;4897013;29;20047;-91
2022/06/06 11:22:24;;;;;;;1.65;0.75;;;31.20;99.90;;;;;;5026313;28;20026;-90
2022/06/06 11:25:18;;;;;;;0.57;0.57;;;31.40;99.90;;;;;;5019933;28;20025;-92
2022/06/06 11:28:11;;;;;;;1.52;0.80;;;31.60;99.90;;;;;;5024027;28;20495;-92
2022/06/06 11:30:55;;;;;;;5.15;1.00;;;31.80;99.90;;;;;;5015092;28;20029;-92
2022/06/06 11:34:02;;;;;;;2.72;1.00;;;32.10;98.70;;;;;;5019822;28;20633;-92
2022/06/06 11:36:46;;;;;;;1.77;0.95;;;32.30;99.30;;;;;;4988742;28;20140;-90
2022/06/06 11:39:59;;;;;;;2.30;0.80;;;32.60;97.40;;;;;;5021125;28;20025;-92
2022/06/06 11:42:47;;;;;;;3.45;1.00;;;32.90;96.90;;;;;;5040624;28;20032;-91
2022/06/06 11:45:24;;;;;;;2.35;0.90;;;33.10;97.20;;;;;;5021259;28;20029;-92
2022/06/06 11:48:12;;;;;;;0.77;0.77;;;33.10;96.50;;;;;;5011049;28;20037;-93
2022/06/06 11:50:57;;;;;;;4.05;0.93;;;33.20;97.10;;;;;;5033745;28;20032;-93
2022/06/06 11:54:03;;;;;;;0.85;0.60;;;33.10;96.10;;;;;;5011338;28;20069;-93
2022/06/06 11:56:51;;;;;;;1.02;0.80;;;33.30;95.00;;;;;;5020678;28;20127;-92
2022/06/06 11:59:42;;;;;;;1.08;0.80;;;33.60;94.30;;;;;;5021817;28;20057;-91
2022/06/06 12:02:30;;;;;;;1.27;0.57;;;35.20;92.70;;;;;;5027848;28;20160;-93
2022/06/06 12:05:40;;;;;;;0.73;0.73;;;39.40;91.40;;;;;;5040010;28;20013;-94
2022/06/06 12:08:30;;;;;;;2.22;0.70;;;43.00;80.20;;;;;;5035532;28;20036;-91
2022/06/06 12:11:53;;;;;;;1.35;0.70;;;45.80;75.40;;;;;;5022975;28;20032;-94
2022/06/06 12:14:39;;;;;;;2.58;0.75;;;48.10;62.20;;;;;;4953785;28;20031;-92
2022/06/06 12:17:17;;;;;;;1.17;0.60;;;49.50;57.20;;;;;;4955231;28;20053;-92
2022/06/06 12:19:54;;;;;;;1.13;0.70;;;50.50;52.90;;;;;;5019523;28;20025;-92
2022/06/06 12:22:52;;;;;;;5.43;0.90;;;50.80;49.90;;;;;;5032057;28;20036;-91
2022/06/06 12:25:29;;;;;;;2.08;0.88;;;51.60;50.90;;;;;;5021256;28;20384;-93
2022/06/06 12:28:06;;;;;;;0.77;0.70;;;52.20;47.70;;;;;;5040642;28;20057;-92
2022/06/06 12:30:59;;;;;;;3.47;0.82;;;52.30;47.00;;;;;;5037885;28;20099;-91
2022/06/06 12:33:57;;;;;;;1.15;0.70;;;52.30;46.80;;;;;;5042038;28;20025;-94
2022/06/06 12:36:32;;;;;;;3.25;0.75;;;52.10;44.80;;;;;;4974961;28;20054;-94
2022/06/06 12:39:00;;;;;;;1.17;0.57;;;53.00;46.40;;;;;;5030992;28;20108;-92
2022/06/06 12:42:08;;;;;;;1.80;0.73;;;54.10;44.20;;;;;;5037651;28;20028;-93
2022/06/06 12:44:53;;;;;;;1.27;0.70;;;55.10;43.90;;;;;;5021364;28;20032;-92
2022/06/06 12:47:54;;;;;;;0.98;0.70;;;56.00;41.20;;;;;;5035785;28;20055;-92
2022/06/06 12:50:38;;;;;;;0.65;0.60;;;56.50;42.40;;;;;;5036034;28;20029;-92
2022/06/06 12:53:47;;;;;;;2.53;0.75;;;56.60;41.00;;;;;;5037428;28;20120;-92
2022/06/06 12:56:39;;;;;;;1.35;0.63;;;55.70;42.00;;;;;;5032412;28;20075;-92
2022/06/06 12:59:26;;;;;;;1.00;0.75;;;56.10;40.40;;;;;;5013565;28;20029;-91
2022/06/06 13:02:21;;;;;;;0.98;0.60;;;54.40;41.60;;;;;;5037774;28;20021;-92
2022/06/06 13:05:05;;;;;;;1.02;0.70;;;52.50;41.40;;;;;;5032741;28;20079;-91
2022/06/06 13:08:02;;;;;;;1.42;0.85;;;51.80;43.20;;;;;;5012804;28;20184;-94
2022/06/06 13:10:49;;;;;;;3.03;0.70;;;51.10;43.40;;;;;;5034768;28;20021;-92
2022/06/06 13:13:52;;;;;;;4.10;0.80;;;51.40;42.20;;;;;;5048384;28;20017;-91
2022/06/06 13:16:34;;;;;;;1.23;0.75;;;51.30;42.20;;;;;;5043350;28;20021;-90
2022/06/06 13:19:51;;;;;;;3.78;0.90;;;51.50;41.50;;;;;;5021301;28;20075;-89
2022/06/06 13:22:38;;;;;;;0.90;0.60;;;51.90;41.30;;;;;;4998738;28;20037;-88
2022/06/06 13:25:24;;;;;;;0.88;0.63;;;51.70;41.30;;;;;;5032831;28;20018;-89
2022/06/06 13:27:57;;;;;;;0.52;0.52;;;50.80;42.40;;;;;;5045306;28;20029;-92
2022/06/06 13:30:26;;;;;;;2.15;0.80;;;50.80;41.90;;;;;;5041932;28;20018;-88
2022/06/06 13:32:54;;;;;;;1.75;0.45;;;50.10;41.60;;;;;;5047169;28;20083;-92
2022/06/06 13:35:49;;;;;;;2.08;0.73;;;50.10;42.30;;;;;;5047190;28;20044;-89
2022/06/06 13:38:43;;;;;;;1.52;0.80;;;50.00;42.20;;;;;;4973747;28;20642;-93
2022/06/06 13:41:12;;;;;;;2.78;1.00;;;49.70;42.60;;;;;;5040271;28;20024;-90
2022/06/06 13:43:44;;;;;;;1.27;0.55;;;50.40;42.10;;;;;;5048456;28;20105;-90
2022/06/06 13:46:32;;;;;;;1.05;0.50;;;51.40;41.50;;;;;;5025002;28;20079;-93
2022/06/06 13:49:08;;;;;;;1.35;0.60;;;51.80;41.20;;;;;;5033362;28;20083;-93
2022/06/06 13:51:37;;;;;;;0.90;0.63;;;52.00;41.40;;;;;;5043003;28;20086;-90
2022/06/06 13:54:10;;;;;;;4.60;0.65;;;52.00;42.00;;;;;;5042190;28;20108;-89
2022/06/06 13:56:56;;;;;;;2.80;0.63;;;51.70;41.60;;;;;;5048270;28;20032;-93
2022/06/06 13:59:59;;;;;;;1.20;0.60;;;51.10;41.90;;;;;;5028448;28;20061;-87
2022/06/06 14:02:49;;;;;;;2.25;0.70;;;50.50;41.90;;;;;;5039786;28;20018;-90
2022/06/06 14:05:46;;;;;;;1.85;0.70;;;49.80;43.10;;;;;;5022025;28;20421;-92
2022/06/06 14:08:23;;;;;;;1.42;0.60;;;49.70;41.70;;;;;;5051400;28;20094;-91
2022/06/06 14:10:55;;;;;;;3.10;0.75;;;49.70;42.70;;;;;;5046288;28;20075;-91
2022/06/06 14:13:41;;;;;;;0.82;0.60;;;49.50;42.70;;;;;;5020915;28;20025;-92
2022/06/06 14:16:44;;;;;;;0.82;0.70;;;48.40;43.20;;;;;;5032537;28;20049;-90
2022/06/06 14:19:22;;;;;;;1.85;1.00;;;47.90;43.60;;;;;;5040436;28;20013;-95
2022/06/06 14:22:04;;;;;;;3.78;0.70;;;48.00;44.40;;;;;;5023880;28;20032;-92
2022/06/06 14:24:32;;;;;;;;;;;48.20;44.10;;;;;;5049899;28;20021;-94
2022/06/06 14:27:05;;;;;;;1.63;0.90;;;47.10;43.80;;;;;;5043211;28;20021;-92